Impacts TAF Board INFO
FOR SITUATIONAL AWARENESS. NOT TO BE USED FOR FLIGHT PLANNING PURPOSES.
IDs:

KDCA - Washington/National, VA, US

Issued at 1120 UTC 19 Nov 2017
Updated at 1411 UTC 19 Nov 2017
Potential Impact None Slight Moderate High
Time<<20/03Z 20/04Z 20/05Z 20/06Z 20/07Z 20/08Z 20/09Z 20/10Z 20/11Z 20/12Z 20/13Z 20/14Z 20/15Z>>
Type PRVL PRVL PRVL PRVL PRVL PRVL PRVL PRVL PRVL
VIS >6 >6 >6 >6 >6 >6 >6 >6 >6
CIG -- -- -- -- -- -- -- -- --
Cover SCT SCT SCT SCT SCT SCT SCT SCT SCT
FltCat VFR VFR VFR VFR VFR VFR VFR VFR VFR
WX -- -- -- -- -- -- -- -- --
WDir 280 280 280 280 280 280 280 280 280
WSpd 9 9 9 9 9 9 9 9 9
WGst -- -- -- -- -- -- -- -- --

Raw TAF
KDCA 191120Z 1912/2012 29020G40KT P6SM SCT045
  FM191900 30020G32KT P6SM SCT045
  FM192200 30015G23KT P6SM SCT045
  FM200200 28009KT P6SM SCT045


METAR Board
Radar Display
Forecast Discussion

FOR SITUATIONAL AWARENESS. NOT TO BE USED FOR FLIGHT PLANNING PURPOSES.